Thunder radar more information blitzortung!


Radar de pluja more information rain snow radar


Visita la nostra xarxa de llocs de meteo:

Template documentation
and downloads

And another site



No particular awareness of the weather is required.    There are no Weather-warnings

Pagina Historial Weather Underground text

Diari Resum January 5, 2016 Unitats:  Mètric    Imperial   Tant
« Previous Dia
SegĂźent Dia »
Diari Setmana Mensual Anual Personalitzada
  Maxima: Minima: Media:
Temperatura: 14.0 °C 7.7 °C 10.4 °C
Punt de rosada: 3.6 °C -1.1 °C 0.3 °C
Humitat: 54 % 45 % 50 %
Wind Speed: 20.4 km/h 1.6 km/h 7.2 km/h
RĂ fegues de vent: 20.4 km/h - -
Vent:- - WSW
Pression baro: 1007.0 hPa 1001.9 hPa -
Precipitacions: 0.0 mm    
Historical Graphs
 
 
Dades de taula per January 5, 2016
Temps Temperatura Punt de rosada Pression baro Vent Wind Speed RĂ fegues de vent Humitat Rainfall Rate (Hourly)
13:04 13.5 °C 3.6 °C 1003.9 hPa WSW 9.3 km/h 9.3 km/h 51 % 0.0 mm
13:09 13.4 °C 3.2 °C 1003.9 hPa WSW 14.8 km/h 14.8 km/h 50 % 0.0 mm
13:14 13.5 °C 3.0 °C 1003.9 hPa West 14.8 km/h 14.8 km/h 49 % 0.0 mm
13:19 13.6 °C 2.8 °C 1003.9 hPa WSW 9.3 km/h 9.3 km/h 48 % 0.0 mm
13:24 13.7 °C 2.9 °C 1003.9 hPa West 5.6 km/h 5.6 km/h 48 % 0.0 mm
13:29 13.8 °C 3.3 °C 1002.9 hPa WNW 5.3 km/h 5.3 km/h 49 % 0.0 mm
13:34 14.0 °C 3.2 °C 1002.9 hPa SSW 13.0 km/h 13.0 km/h 48 % 0.0 mm
13:39 14.0 °C 3.2 °C 1002.9 hPa WSW 5.8 km/h 6.9 km/h 48 % 0.0 mm
13:44 13.9 °C 2.4 °C 1002.9 hPa SW 9.3 km/h 9.3 km/h 46 % 0.0 mm
13:49 13.7 °C 2.3 °C 1002.9 hPa WNW 5.6 km/h 5.6 km/h 46 % 0.0 mm
13:54 13.5 °C 2.1 °C 1002.9 hPa WSW 13.0 km/h 13.0 km/h 46 % 0.0 mm
13:59 13.4 °C 2.0 °C 1002.9 hPa WSW 16.7 km/h 16.7 km/h 46 % 0.0 mm
14:04 13.4 °C 2.0 °C 1002.9 hPa WSW 16.7 km/h 16.7 km/h 46 % 0.0 mm
14:09 13.4 °C 2.0 °C 1002.9 hPa WSW 16.7 km/h 16.7 km/h 46 % 0.0 mm
14:14 13.2 °C 1.5 °C 1002.9 hPa WNW 16.7 km/h 16.7 km/h 45 % 0.0 mm
14:19 13.3 °C 1.9 °C 1002.9 hPa WSW 16.7 km/h 16.7 km/h 46 % 0.0 mm
14:24 13.0 °C 1.6 °C 1002.9 hPa WSW 16.7 km/h 16.7 km/h 46 % 0.0 mm
14:29 12.9 °C 1.8 °C 1002.9 hPa WSW 4.7 km/h 5.0 km/h 47 % 0.0 mm
14:34 13.1 °C 2.1 °C 1002.9 hPa WSW 4.7 km/h 5.0 km/h 47 % 0.0 mm
14:39 13.1 °C 2.1 °C 1002.9 hPa SW 11.4 km/h 11.4 km/h 47 % 0.0 mm
14:44 13.0 °C 1.9 °C 1001.9 hPa WNW 9.3 km/h 9.3 km/h 47 % 0.0 mm
14:49 13.0 °C 1.9 °C 1001.9 hPa West 7.9 km/h 7.9 km/h 47 % 0.0 mm
14:54 12.5 °C 1.5 °C 1001.9 hPa West 7.9 km/h 7.9 km/h 47 % 0.0 mm
14:59 12.3 °C 1.6 °C 1001.9 hPa WNW 7.9 km/h 7.9 km/h 48 % 0.0 mm
15:04 12.1 °C 1.4 °C 1001.9 hPa WSW 6.1 km/h 6.1 km/h 48 % 0.0 mm
15:09 12.1 °C 1.7 °C 1001.9 hPa West 6.1 km/h 6.1 km/h 49 % 0.0 mm
15:14 12.4 °C 1.9 °C 1001.9 hPa WSW 5.6 km/h 5.6 km/h 49 % 0.0 mm
15:19 12.1 °C 1.7 °C 1001.9 hPa SW 5.8 km/h 5.8 km/h 49 % 0.0 mm
15:24 11.9 °C 1.2 °C 1001.9 hPa SW 5.8 km/h 5.8 km/h 48 % 0.0 mm
15:29 11.8 °C 1.1 °C 1001.9 hPa SW 5.8 km/h 5.8 km/h 48 % 0.0 mm
15:34 11.9 °C 0.9 °C 1001.9 hPa SW 5.8 km/h 5.8 km/h 47 % 0.0 mm
15:39 11.9 °C 0.9 °C 1001.9 hPa West 7.4 km/h 7.4 km/h 47 % 0.0 mm
15:44 11.9 °C 0.9 °C 1002.9 hPa SW 5.6 km/h 7.6 km/h 47 % 0.0 mm
15:49 12.0 °C 1.0 °C 1002.9 hPa WSW 13.0 km/h 13.0 km/h 47 % 0.0 mm
15:54 12.5 °C 1.5 °C 1002.9 hPa WSW 7.4 km/h 7.4 km/h 47 % 0.0 mm
15:59 12.9 °C 2.2 °C 1002.9 hPa WSW 13.0 km/h 13.0 km/h 48 % 0.0 mm
16:04 13.0 °C 1.9 °C 1002.9 hPa WSW 20.4 km/h 20.4 km/h 47 % 0.0 mm
16:09 12.8 °C 1.4 °C 1002.9 hPa WSW 11.1 km/h 11.1 km/h 46 % 0.0 mm
16:14 13.0 °C 1.9 °C 1002.9 hPa West 8.7 km/h 8.7 km/h 47 % 0.0 mm
16:19 12.5 °C 1.2 °C 1002.9 hPa WSW 14.8 km/h 14.8 km/h 46 % 0.0 mm
16:24 12.4 °C 1.1 °C 1002.9 hPa WNW 14.8 km/h 14.8 km/h 46 % 0.0 mm
16:29 12.5 °C 1.2 °C 1002.9 hPa West 9.3 km/h 9.3 km/h 46 % 0.0 mm
16:34 12.5 °C 1.2 °C 1002.9 hPa SSW 5.6 km/h 5.6 km/h 46 % 0.0 mm
16:39 12.6 °C 1.6 °C 1002.9 hPa West 3.7 km/h 4.2 km/h 47 % 0.0 mm
16:44 12.4 °C 1.4 °C 1002.9 hPa WSW 3.9 km/h 7.2 km/h 47 % 0.0 mm
16:49 12.4 °C 1.4 °C 1002.9 hPa SSW 6.1 km/h 6.1 km/h 47 % 0.0 mm
16:54 12.3 °C 1.3 °C 1002.9 hPa West 9.3 km/h 9.3 km/h 47 % 0.0 mm
16:59 12.1 °C 1.1 °C 1002.9 hPa West 9.3 km/h 9.3 km/h 47 % 0.0 mm
17:04 12.0 °C 1.0 °C 1002.9 hPa West 9.3 km/h 9.3 km/h 47 % 0.0 mm
17:09 12.0 °C 1.0 °C 1002.9 hPa West 9.3 km/h 9.3 km/h 47 % 0.0 mm
17:14 11.8 °C 0.8 °C 1003.9 hPa West 9.3 km/h 9.3 km/h 47 % 0.0 mm
17:19 11.6 °C 0.3 °C 1003.9 hPa West 9.3 km/h 9.3 km/h 46 % 0.0 mm
17:24 11.2 °C 0.0 °C 1003.9 hPa West 9.3 km/h 9.3 km/h 46 % 0.0 mm
17:29 10.9 °C -0.3 °C 1002.9 hPa West 9.3 km/h 9.3 km/h 46 % 0.0 mm
17:34 10.8 °C -0.4 °C 1002.9 hPa West 9.3 km/h 9.3 km/h 46 % 0.0 mm
17:39 10.7 °C -0.4 °C 1002.9 hPa West 9.3 km/h 9.3 km/h 46 % 0.0 mm
17:44 10.5 °C -0.7 °C 1003.9 hPa West 9.3 km/h 9.3 km/h 46 % 0.0 mm
17:49 10.4 °C -0.7 °C 1003.9 hPa West 9.3 km/h 9.3 km/h 46 % 0.0 mm
17:54 10.2 °C -0.6 °C 1003.9 hPa West 9.3 km/h 9.3 km/h 47 % 0.0 mm
17:59 10.1 °C -0.7 °C 1003.9 hPa West 9.3 km/h 9.3 km/h 47 % 0.0 mm
18:04 10.1 °C -0.7 °C 1003.9 hPa West 9.3 km/h 9.3 km/h 47 % 0.0 mm
18:09 10.0 °C -0.8 °C 1003.9 hPa West 9.3 km/h 9.3 km/h 47 % 0.0 mm
18:14 9.9 °C -0.9 °C 1003.9 hPa West 9.3 km/h 9.3 km/h 47 % 0.0 mm
18:19 9.9 °C -0.6 °C 1003.9 hPa West 9.3 km/h 9.3 km/h 48 % 0.0 mm
18:24 9.9 °C -0.6 °C 1003.9 hPa SW 10.0 km/h 10.0 km/h 48 % 0.0 mm
18:29 9.8 °C -0.7 °C 1003.9 hPa SW 10.0 km/h 10.0 km/h 48 % 0.0 mm
18:34 9.7 °C -0.8 °C 1003.9 hPa SW 10.0 km/h 10.0 km/h 48 % 0.0 mm
18:39 9.7 °C -0.8 °C 1003.9 hPa SW 10.0 km/h 10.0 km/h 48 % 0.0 mm
18:44 9.7 °C -0.8 °C 1003.9 hPa WSW 9.3 km/h 9.3 km/h 48 % 0.0 mm
18:49 9.6 °C -0.6 °C 1003.9 hPa WSW 7.4 km/h 7.6 km/h 49 % 0.0 mm
18:54 9.6 °C -0.6 °C 1003.9 hPa WSW 7.4 km/h 7.6 km/h 49 % 0.0 mm
18:59 9.6 °C -0.6 °C 1005.0 hPa WSW 7.4 km/h 7.6 km/h 49 % 0.0 mm
19:04 9.5 °C -0.7 °C 1005.0 hPa WSW 7.4 km/h 7.6 km/h 49 % 0.0 mm
19:09 9.4 °C -0.8 °C 1005.0 hPa WSW 7.4 km/h 7.6 km/h 49 % 0.0 mm
19:14 9.4 °C -0.8 °C 1003.9 hPa WSW 7.4 km/h 7.6 km/h 49 % 0.0 mm
19:19 9.2 °C -1.0 °C 1003.9 hPa WSW 7.4 km/h 7.6 km/h 49 % 0.0 mm
19:24 9.1 °C -1.1 °C 1003.9 hPa WSW 7.4 km/h 7.6 km/h 49 % 0.0 mm
19:30 9.1 °C -0.8 °C 1003.9 hPa WSW 8.0 km/h 8.0 km/h 50 % 0.0 mm
19:35 9.0 °C -0.9 °C 1003.9 hPa WSW 4.8 km/h 8.0 km/h 50 % 0.0 mm
19:40 9.0 °C -0.9 °C 1003.9 hPa West 5.6 km/h 5.6 km/h 50 % 0.0 mm
19:45 9.0 °C -0.9 °C 1003.9 hPa West 4.8 km/h 4.8 km/h 50 % 0.0 mm
19:50 9.0 °C -0.9 °C 1003.9 hPa West 4.8 km/h 4.8 km/h 50 % 0.0 mm
19:55 9.0 °C -0.9 °C 1003.9 hPa West 4.8 km/h 4.8 km/h 50 % 0.0 mm
20:00 9.0 °C -0.9 °C 1003.9 hPa West 4.8 km/h 4.8 km/h 50 % 0.0 mm
20:05 9.0 °C -0.9 °C 1003.9 hPa West 3.2 km/h 4.8 km/h 50 % 0.0 mm
20:10 9.0 °C -0.9 °C 1003.9 hPa West 4.8 km/h 11.3 km/h 50 % 0.0 mm
20:15 8.9 °C -0.7 °C 1003.9 hPa West 4.8 km/h 8.0 km/h 51 % 0.0 mm
20:20 9.0 °C -0.6 °C 1003.9 hPa West 3.2 km/h 4.8 km/h 51 % 0.0 mm
20:25 8.9 °C -0.7 °C 1003.9 hPa WSW 4.8 km/h 4.8 km/h 51 % 0.0 mm
20:30 8.8 °C -0.8 °C 1005.0 hPa West 3.2 km/h 9.7 km/h 51 % 0.0 mm
20:35 8.7 °C -0.9 °C 1005.0 hPa WSW 5.8 km/h 5.8 km/h 51 % 0.0 mm
20:40 8.7 °C -0.9 °C 1005.0 hPa WSW 5.6 km/h 5.6 km/h 51 % 0.0 mm
20:45 8.6 °C -1.0 °C 1005.0 hPa WSW 3.2 km/h 4.8 km/h 51 % 0.0 mm
20:50 8.6 °C -0.7 °C 1005.0 hPa WSW 7.6 km/h 7.6 km/h 52 % 0.0 mm
20:55 8.5 °C -0.8 °C 1005.0 hPa WSW 3.2 km/h 8.0 km/h 52 % 0.0 mm
21:00 8.5 °C -0.8 °C 1006.0 hPa WSW 3.2 km/h 8.0 km/h 52 % 0.0 mm
21:05 8.6 °C -0.7 °C 1006.0 hPa WSW 5.8 km/h 9.0 km/h 52 % 0.0 mm
21:10 8.6 °C -0.7 °C 1006.0 hPa West 4.2 km/h 4.2 km/h 52 % 0.0 mm
21:15 8.6 °C -0.7 °C 1006.0 hPa West 3.2 km/h 6.4 km/h 52 % 0.0 mm
21:20 8.6 °C -0.4 °C 1006.0 hPa WSW 4.8 km/h 6.4 km/h 53 % 0.0 mm
21:25 8.6 °C -0.4 °C 1006.0 hPa West 3.2 km/h 4.8 km/h 53 % 0.0 mm
21:30 8.5 °C -0.6 °C 1006.0 hPa West 2.3 km/h 2.3 km/h 53 % 0.0 mm
21:35 8.4 °C -0.6 °C 1006.0 hPa WSW 2.3 km/h 3.2 km/h 53 % 0.0 mm
21:40 8.4 °C -0.6 °C 1006.0 hPa WSW 3.9 km/h 3.9 km/h 53 % 0.0 mm
21:45 8.2 °C -0.8 °C 1006.0 hPa WSW 3.9 km/h 3.9 km/h 53 % 0.0 mm
21:50 8.2 °C -0.8 °C 1006.0 hPa WSW 3.2 km/h 3.2 km/h 53 % 0.0 mm
21:55 8.3 °C -0.7 °C 1006.0 hPa WSW 3.2 km/h 3.2 km/h 53 % 0.0 mm
22:00 8.3 °C -0.5 °C 1006.0 hPa WSW 4.8 km/h 8.0 km/h 54 % 0.0 mm
22:05 8.4 °C -0.4 °C 1006.0 hPa WSW 3.2 km/h 8.0 km/h 54 % 0.0 mm
22:10 8.4 °C -0.4 °C 1006.0 hPa WSW 3.2 km/h 8.0 km/h 54 % 0.0 mm
22:15 8.3 °C -0.5 °C 1005.0 hPa West 3.2 km/h 9.7 km/h 54 % 0.0 mm
22:20 8.3 °C -0.5 °C 1005.0 hPa West 3.7 km/h 3.7 km/h 54 % 0.0 mm
22:25 8.3 °C -0.5 °C 1005.0 hPa SW 4.7 km/h 4.7 km/h 54 % 0.0 mm
22:30 8.2 °C -0.6 °C 1006.0 hPa WSW 6.1 km/h 6.1 km/h 54 % 0.0 mm
22:35 8.2 °C -0.6 °C 1006.0 hPa SSW 5.6 km/h 5.6 km/h 54 % 0.0 mm
22:40 8.1 °C -0.7 °C 1006.0 hPa SW 7.4 km/h 7.4 km/h 54 % 0.0 mm
22:45 8.1 °C -0.7 °C 1006.0 hPa WSW 7.4 km/h 7.4 km/h 54 % 0.0 mm
22:50 8.1 °C -0.7 °C 1006.0 hPa WSW 3.2 km/h 8.0 km/h 54 % 0.0 mm
22:55 8.0 °C -0.8 °C 1006.0 hPa WSW 2.6 km/h 3.2 km/h 54 % 0.0 mm
23:00 8.0 °C -0.8 °C 1006.0 hPa West 1.6 km/h 4.8 km/h 54 % 0.0 mm
23:05 8.0 °C -0.8 °C 1006.0 hPa WSW 1.6 km/h 3.2 km/h 54 % 0.0 mm
23:10 8.0 °C -0.8 °C 1006.0 hPa WNW 5.6 km/h 5.6 km/h 54 % 0.0 mm
23:15 7.9 °C -0.8 °C 1007.0 hPa West 1.6 km/h 6.4 km/h 54 % 0.0 mm
23:20 7.9 °C -0.8 °C 1007.0 hPa West 3.2 km/h 8.0 km/h 54 % 0.0 mm
23:25 7.8 °C -0.9 °C 1007.0 hPa West 1.6 km/h 3.2 km/h 54 % 0.0 mm
23:30 7.8 °C -0.9 °C 1007.0 hPa West 4.8 km/h 11.3 km/h 54 % 0.0 mm
23:35 7.8 °C -0.9 °C 1007.0 hPa WNW 3.7 km/h 3.7 km/h 54 % 0.0 mm
23:40 7.9 °C -0.8 °C 1007.0 hPa WNW 2.6 km/h 3.5 km/h 54 % 0.0 mm
23:45 7.8 °C -0.9 °C 1007.0 hPa NW 3.7 km/h 3.7 km/h 54 % 0.0 mm
23:50 7.7 °C -1.1 °C 1007.0 hPa West 2.6 km/h 6.4 km/h 54 % 0.0 mm
23:55 7.7 °C -1.1 °C 1007.0 hPa West 5.6 km/h 5.6 km/h 54 % 0.0 mm
Meteo Sesrovires
Elogis d' Weather Underground - 3.25 mb

Guio original per  Jim McMurry - jmcmurry@mwt.net Adaptat per a la plantilla per  Wim van der Kuil - Leuven-Template.eu

Trobareu la nostra informacio del temps tambe a:

Weather Underground

AWEKAS